createdAt,value
2022-09-20T00:01:53.768Z,96459.19
2022-09-20T00:04:21.199Z,96455.81
2022-09-20T00:06:48.636Z,96456.25
2022-09-20T00:09:16.116Z,96462.59
2022-09-20T00:11:45.283Z,96460.00
2022-09-20T00:14:14.028Z,96452.41
2022-09-20T00:16:42.140Z,96462.81
2022-09-20T00:19:10.288Z,96452.97
2022-09-20T00:21:37.776Z,96448.00
2022-09-20T00:24:05.913Z,96453.19
2022-09-20T00:26:33.670Z,96446.31
2022-09-20T00:29:01.300Z,96450.81
2022-09-20T00:31:30.117Z,96438.50
2022-09-20T00:34:15.868Z,96451.25
2022-09-20T00:36:44.101Z,96451.41
2022-09-20T00:39:13.690Z,96442.09
2022-09-20T00:41:41.155Z,96442.00
2022-09-20T00:44:42.020Z,96440.84
2022-09-20T00:47:17.004Z,96437.38
2022-09-20T00:49:44.484Z,96454.88
2022-09-20T00:52:12.249Z,96442.00
2022-09-20T00:54:39.710Z,96450.47
2022-09-20T00:57:07.243Z,96443.69
2022-09-20T00:59:38.032Z,96440.75
2022-09-20T01:02:09.808Z,96441.41
2022-09-20T01:04:40.293Z,96444.91
2022-09-20T01:07:10.084Z,96442.09
2022-09-20T01:09:37.718Z,96448.31
2022-09-20T01:12:10.352Z,96454.09
2022-09-20T01:14:37.876Z,96439.25
2022-09-20T01:17:07.278Z,96450.78
2022-09-20T01:19:44.087Z,96448.53
2022-09-20T01:22:19.211Z,96450.91
2022-09-20T01:24:53.482Z,96448.66
2022-09-20T01:27:27.720Z,96447.53
2022-09-20T01:30:06.002Z,96449.69
2022-09-20T01:32:43.828Z,96455.22
2022-09-20T01:35:14.219Z,96449.69
2022-09-20T01:37:51.255Z,96456.59
2022-09-20T01:40:28.638Z,96445.63
2022-09-20T01:43:07.114Z,96458.38
2022-09-20T01:45:36.110Z,96452.63
2022-09-20T01:48:14.473Z,96451.03
2022-09-20T01:51:07.405Z,96454.19
2022-09-20T01:54:05.451Z,96455.22
2022-09-20T01:56:57.662Z,96449.25
2022-09-20T01:59:46.520Z,96456.22
2022-09-20T02:02:45.611Z,96442.66
2022-09-20T02:05:44.146Z,96457.03
2022-09-20T02:08:41.320Z,96459.84
2022-09-20T02:11:14.393Z,96453.75
2022-09-20T02:14:05.259Z,96444.50
2022-09-20T02:16:49.521Z,96443.22
2022-09-20T02:20:04.253Z,96446.63
2022-09-20T02:22:45.786Z,96452.63
2022-09-20T02:25:24.783Z,96454.66
2022-09-20T02:28:14.593Z,96449.81
2022-09-20T02:30:52.182Z,96446.28
2022-09-20T02:33:44.155Z,96449.69
2022-09-20T02:36:29.012Z,96443.59
2022-09-20T02:39:03.815Z,96440.09
2022-09-20T02:41:52.480Z,96434.31
2022-09-20T02:44:29.490Z,96440.63
2022-09-20T02:47:07.662Z,96433.75
2022-09-20T02:49:46.082Z,96438.72
2022-09-20T02:52:24.210Z,96431.34
2022-09-20T02:54:59.858Z,96435.91
2022-09-20T02:57:37.478Z,96437.25
2022-09-20T03:00:08.100Z,96422.44
2022-09-20T03:02:51.205Z,96434.97
2022-09-20T03:05:25.267Z,96436.81
2022-09-20T03:08:05.212Z,96429.91
2022-09-20T03:10:38.361Z,96425.03
2022-09-20T03:13:19.045Z,96431.25
2022-09-20T03:15:58.068Z,96421.53
2022-09-20T03:18:35.546Z,96425.03
2022-09-20T03:21:26.735Z,96427.88
2022-09-20T03:24:06.448Z,96426.16
2022-09-20T03:26:44.917Z,96423.00
2022-09-20T03:29:26.988Z,96435.66
2022-09-20T03:32:08.387Z,96437.72
2022-09-20T03:34:47.996Z,96427.75
2022-09-20T03:37:39.428Z,96431.25
2022-09-20T03:40:30.189Z,96435.19
2022-09-20T03:43:06.577Z,96425.81
2022-09-20T03:45:52.865Z,96432.91
2022-09-20T03:48:37.986Z,96421.97
2022-09-20T03:51:13.961Z,96435.75
2022-09-20T03:54:11.052Z,96421.38
2022-09-20T03:57:10.415Z,96426.38
2022-09-20T03:59:56.207Z,96426.03
2022-09-20T04:02:57.698Z,96432.47
2022-09-20T04:05:35.787Z,96422.97
2022-09-20T04:08:14.564Z,96419.47
2022-09-20T04:10:54.064Z,96421.28
2022-09-20T04:13:35.799Z,96420.69
2022-09-20T04:16:15.672Z,96421.91
2022-09-20T04:18:47.543Z,96411.06
2022-09-20T04:21:23.613Z,96437.28
2022-09-20T04:23:58.038Z,96430.97
2022-09-20T04:26:28.916Z,96422.03
2022-09-20T04:29:16.631Z,96426.91
2022-09-20T04:31:53.944Z,96418.66
2022-09-20T04:34:47.296Z,96433.44
2022-09-20T04:37:26.446Z,96442.63
2022-09-20T04:40:05.608Z,96443.84
2022-09-20T04:43:12.216Z,96441.69
2022-09-20T04:46:09.702Z,96439.75
2022-09-20T04:49:05.953Z,96429.25
2022-09-20T04:52:19.192Z,96441.44
2022-09-20T04:55:20.739Z,96435.78
2022-09-20T04:58:25.685Z,96433.06
2022-09-20T05:01:31.637Z,96386.09
2022-09-20T05:04:30.145Z,96442.41
2022-09-20T05:07:21.987Z,96448.13
2022-09-20T05:10:17.376Z,96455.00
2022-09-20T05:13:13.446Z,96463.81
2022-09-20T05:15:46.019Z,96465.94
2022-09-20T05:18:50.873Z,96467.94
2022-09-20T05:21:35.265Z,96452.81
2022-09-20T05:24:22.083Z,96467.25
2022-09-20T05:27:05.580Z,96456.28
2022-09-20T05:29:42.336Z,96463.84
2022-09-20T05:32:18.983Z,96453.44
2022-09-20T05:34:56.301Z,96459.34
2022-09-20T05:37:33.579Z,96473.03
2022-09-20T05:40:07.090Z,96477.47
2022-09-20T05:42:41.832Z,96477.47
2022-09-20T05:45:24.418Z,96477.94
2022-09-20T05:47:59.465Z,96478.16
2022-09-20T05:50:47.239Z,96474.19
2022-09-20T05:53:35.047Z,96484.16
2022-09-20T05:56:12.673Z,96492.28
2022-09-20T05:59:01.959Z,96493.94
2022-09-20T06:01:35.067Z,96492.88
2022-09-20T06:04:13.604Z,96490.97
2022-09-20T06:06:53.292Z,96505.00
2022-09-20T06:09:36.255Z,96492.63
2022-09-20T06:12:23.081Z,96487.31
2022-09-20T06:15:01.737Z,96486.31
2022-09-20T06:17:34.123Z,96494.34
2022-09-20T06:20:16.038Z,96479.06
2022-09-20T06:22:48.937Z,96491.28
2022-09-20T06:25:22.613Z,96494.13
2022-09-20T06:27:54.715Z,96494.94
2022-09-20T06:30:25.915Z,96491.78
2022-09-20T06:32:55.348Z,96487.13
2022-09-20T06:35:26.083Z,96495.50
2022-09-20T06:38:18.552Z,96495.38
2022-09-20T06:41:15.154Z,96497.53
2022-09-20T06:43:42.947Z,96501.16
2022-09-20T06:46:10.510Z,96503.91
2022-09-20T06:48:39.796Z,96503.56
2022-09-20T06:51:08.262Z,96513.28
2022-09-20T06:53:40.186Z,96508.19
2022-09-20T06:56:10.299Z,96505.94
2022-09-20T06:58:37.730Z,96503.00
2022-09-20T07:01:05.306Z,96512.97
2022-09-20T07:03:32.788Z,96511.56
2022-09-20T07:06:01.050Z,96506.69
2022-09-20T07:08:28.655Z,96511.31
2022-09-20T07:10:57.419Z,96525.44
2022-09-20T07:13:25.170Z,96517.97
2022-09-20T07:15:52.606Z,96518.31
2022-09-20T07:18:20.026Z,96502.78
2022-09-20T07:20:47.704Z,96512.50
2022-09-20T07:23:15.813Z,96517.56
2022-09-20T07:25:43.264Z,96525.38
2022-09-20T07:28:12.024Z,96509.63
2022-09-20T07:30:39.476Z,96516.63
2022-09-20T07:33:07.582Z,96519.09
2022-09-20T07:35:36.187Z,96522.91
2022-09-20T07:38:03.941Z,96527.91
2022-09-20T07:40:31.930Z,96533.97
2022-09-20T07:42:59.394Z,96536.88
2022-09-20T07:45:28.501Z,96536.66
2022-09-20T07:47:58.078Z,96527.53
2022-09-20T07:50:25.499Z,96536.09
2022-09-20T07:52:52.876Z,96522.03
2022-09-20T07:55:20.269Z,96523.00
2022-09-20T07:57:47.691Z,96518.03
2022-09-20T08:00:15.878Z,96531.00
2022-09-20T08:02:45.302Z,96515.88
2022-09-20T08:05:12.827Z,96521.53
2022-09-20T08:07:40.304Z,96530.69
2022-09-20T08:10:08.684Z,96530.75
2022-09-20T08:15:25.797Z,96532.03
2022-09-20T08:17:54.655Z,96527.97
2022-09-20T08:20:22.133Z,96538.56
2022-09-20T08:23:06.265Z,96546.47
2022-09-20T08:25:38.225Z,96539.81
2022-09-20T08:28:05.647Z,96542.63
2022-09-20T08:30:33.063Z,96545.72
2022-09-20T08:33:04.800Z,96548.31
2022-09-20T08:35:32.267Z,96531.44
2022-09-20T08:39:57.189Z,96549.56
2022-09-20T08:40:49.270Z,96560.56
2022-09-20T08:43:22.284Z,96560.72
2022-09-20T08:45:50.192Z,96561.25
2022-09-20T08:48:21.650Z,96552.19
2022-09-20T08:50:49.473Z,96550.78
2022-09-20T08:53:21.444Z,96560.56
2022-09-20T08:55:49.479Z,96554.34
2022-09-20T08:58:17.115Z,96559.94
2022-09-20T09:00:47.681Z,96558.66
2022-09-20T09:03:17.831Z,96558.00
2022-09-20T09:05:48.424Z,96561.19
2022-09-20T09:08:19.416Z,96566.56
2022-09-20T09:10:54.551Z,96551.75
2022-09-20T09:13:27.341Z,96567.81
2022-09-20T09:15:58.510Z,96565.25
2022-09-20T09:18:33.871Z,96569.25
2022-09-20T09:21:05.128Z,96569.75
2022-09-20T09:23:41.197Z,96566.31
2022-09-20T09:26:17.850Z,96561.28
2022-09-20T09:28:45.328Z,96562.03
2022-09-20T09:31:15.832Z,96558.97
2022-09-20T09:33:46.957Z,96557.88
2022-09-20T09:36:17.469Z,96555.44
2022-09-20T09:38:47.073Z,96563.13
2022-09-20T09:41:26.061Z,96570.84
2022-09-20T09:44:00.971Z,96565.56
2022-09-20T09:46:33.195Z,96562.56
2022-09-20T09:49:12.502Z,96548.59
2022-09-20T09:51:43.884Z,96553.22
2022-09-20T09:54:19.800Z,96568.06
2022-09-20T09:56:57.818Z,96563.13
2022-09-20T09:59:49.155Z,96554.91
2022-09-20T10:02:35.017Z,96551.56
2022-09-20T10:05:13.047Z,96553.06
2022-09-20T10:07:49.044Z,96546.56
2022-09-20T10:10:29.139Z,96549.69
2022-09-20T10:13:09.642Z,96549.94
2022-09-20T10:15:45.787Z,96554.44
2022-09-20T10:18:24.044Z,96550.19
2022-09-20T10:21:00.420Z,96550.53
2022-09-20T10:24:02.474Z,96554.03
2022-09-20T10:26:45.008Z,96545.59
2022-09-20T10:29:26.116Z,96542.47
2022-09-20T10:32:04.023Z,96542.72
2022-09-20T10:34:50.851Z,96551.91
2022-09-20T10:37:25.459Z,96549.69
2022-09-20T10:40:04.131Z,96547.06
2022-09-20T10:42:58.791Z,96553.44
2022-09-20T10:48:28.340Z,96551.63
2022-09-20T10:51:00.795Z,96551.69
2022-09-20T10:53:39.210Z,96551.22
2022-09-20T10:56:24.723Z,96549.56
2022-09-20T10:59:23.071Z,96547.94
2022-09-20T11:02:06.643Z,96549.75
2022-09-20T11:05:07.751Z,96562.94
2022-09-20T11:07:50.897Z,96558.16
2022-09-20T11:10:24.201Z,96556.19
2022-09-20T11:13:00.367Z,96560.34
2022-09-20T11:15:33.316Z,96562.59
2022-09-20T11:18:10.615Z,96564.31
2022-09-20T11:20:44.849Z,96561.56
2022-09-20T11:23:18.181Z,96555.19
2022-09-20T11:25:51.607Z,96553.53
2022-09-20T11:28:26.254Z,96547.72
2022-09-20T11:31:01.153Z,96554.41
2022-09-20T11:33:31.973Z,96555.69
2022-09-20T11:36:02.780Z,96558.59
2022-09-20T11:38:36.732Z,96559.94
2022-09-20T11:41:12.680Z,96564.88
2022-09-20T11:43:44.272Z,96553.88
2022-09-20T11:46:15.624Z,96560.69
2022-09-20T11:48:47.110Z,96558.00
2022-09-20T11:52:04.259Z,96559.84
2022-09-20T11:54:49.540Z,96558.19
2022-09-20T11:57:17.578Z,96560.72
2022-09-20T11:59:53.761Z,96560.31
2022-09-20T12:02:27.214Z,96539.00
2022-09-20T12:04:55.815Z,96560.25
2022-09-20T12:07:26.607Z,96557.69
2022-09-20T12:09:58.086Z,96563.47
2022-09-20T12:12:37.447Z,96558.31
2022-09-20T12:15:22.682Z,96569.81
2022-09-20T12:18:09.409Z,96569.94
2022-09-20T12:21:14.999Z,96570.72
2022-09-20T12:24:24.822Z,96566.41
2022-09-20T12:26:56.630Z,96571.50
2022-09-20T12:30:15.896Z,96564.03
2022-09-20T12:32:54.050Z,96568.22
2022-09-20T12:36:01.032Z,96565.13
2022-09-20T12:38:48.878Z,96578.69
2022-09-20T12:41:27.887Z,96586.66
2022-09-20T12:44:02.490Z,96571.13
2022-09-20T12:46:36.871Z,96581.16
2022-09-20T12:49:48.830Z,96573.22
2022-09-20T12:52:47.026Z,96579.38
2022-09-20T12:55:40.443Z,96578.03
2022-09-20T12:58:20.934Z,96571.47
2022-09-20T13:00:51.093Z,96582.81
2022-09-20T13:03:28.639Z,96583.69
2022-09-20T13:06:25.478Z,96570.78
2022-09-20T13:08:58.855Z,96573.38
2022-09-20T13:11:31.132Z,96584.78
2022-09-20T13:14:02.118Z,96574.19
2022-09-20T13:16:33.055Z,96574.59
2022-09-20T13:19:05.462Z,96586.38
2022-09-20T13:21:37.658Z,96584.09
2022-09-20T13:24:06.456Z,96578.16
2022-09-20T13:26:36.966Z,96593.34
2022-09-20T13:29:09.925Z,96596.44
2022-09-20T13:31:38.030Z,96600.78
2022-09-20T13:34:25.718Z,96598.97
2022-09-20T13:36:58.050Z,96600.47
2022-09-20T13:39:36.294Z,96603.22
2022-09-20T13:42:09.082Z,96606.16
2022-09-20T13:44:37.273Z,96602.22
2022-09-20T13:47:22.700Z,96607.59
2022-09-20T13:49:50.547Z,96600.22
2022-09-20T13:52:27.344Z,96605.22
2022-09-20T13:54:56.043Z,96603.66
2022-09-20T13:57:27.257Z,96600.75
2022-09-20T13:59:56.983Z,96606.00
2022-09-20T14:02:30.220Z,96600.06
2022-09-20T14:05:00.548Z,96594.09
2022-09-20T14:07:30.938Z,96599.97
2022-09-20T14:09:59.492Z,96594.75
2022-09-20T14:12:28.294Z,96591.13
2022-09-20T14:14:56.254Z,96595.63
2022-09-20T14:17:25.401Z,96592.38
2022-09-20T14:19:55.351Z,96588.97
2022-09-20T14:22:27.142Z,96596.25
2022-09-20T14:25:01.306Z,96604.50
2022-09-20T14:27:30.993Z,96596.56
2022-09-20T14:29:58.532Z,96597.09
2022-09-20T14:32:40.417Z,96592.88
2022-09-20T14:35:15.956Z,96601.72
2022-09-20T14:37:45.289Z,96607.97
2022-09-20T14:40:28.438Z,96615.44
2022-09-20T14:42:58.715Z,96605.78
2022-09-20T14:45:30.522Z,96607.88
2022-09-20T14:48:06.736Z,96611.50
2022-09-20T14:50:39.940Z,96598.28
2022-09-20T14:53:22.743Z,96608.22
2022-09-20T14:56:00.667Z,96598.00
2022-09-20T14:58:28.391Z,96597.06
2022-09-20T15:01:01.429Z,96592.78
2022-09-20T15:03:31.871Z,96597.22
2022-09-20T15:05:59.700Z,96582.41
2022-09-20T15:08:28.168Z,96587.00
2022-09-20T15:10:55.717Z,96581.63
2022-09-20T15:13:24.456Z,96587.34
2022-09-20T15:15:54.211Z,96592.06
2022-09-20T15:18:23.195Z,96588.44
2022-09-20T15:20:50.903Z,96577.56
2022-09-20T15:23:18.415Z,96572.13
2022-09-20T15:25:46.154Z,96588.19
2022-09-20T15:28:16.651Z,96590.00
2022-09-20T15:30:46.085Z,96591.75
2022-09-20T15:33:14.680Z,96581.44
2022-09-20T15:35:43.755Z,96584.44
2022-09-20T15:38:12.032Z,96589.84
2022-09-20T15:40:40.840Z,96578.56
2022-09-20T15:43:09.355Z,96583.75
2022-09-20T15:45:37.678Z,96583.38
2022-09-20T15:48:08.267Z,96574.41
2022-09-20T15:50:35.696Z,96584.84
2022-09-20T15:53:03.288Z,96576.00
2022-09-20T15:55:30.717Z,96565.78
2022-09-20T15:57:58.124Z,96567.16
2022-09-20T16:00:25.555Z,96574.28
2022-09-20T16:02:52.979Z,96574.03
2022-09-20T16:05:21.726Z,96570.38
2022-09-20T16:07:49.133Z,96579.50
2022-09-20T16:10:16.783Z,96578.53
2022-09-20T16:12:44.195Z,96572.47
2022-09-20T16:15:12.028Z,96581.06
2022-09-20T16:17:57.002Z,96573.97
2022-09-20T16:20:25.779Z,96571.66
2022-09-20T16:22:53.187Z,96585.28
2022-09-20T16:25:20.825Z,96574.94
2022-09-20T16:27:48.272Z,96585.75
2022-09-20T16:30:15.942Z,96581.00
2022-09-20T16:32:43.407Z,96582.50
2022-09-20T16:35:11.162Z,96585.19
2022-09-20T16:37:39.935Z,96565.59
2022-09-20T16:40:10.593Z,96570.28
2022-09-20T16:42:38.910Z,96564.06
2022-09-20T16:45:07.328Z,96575.56
2022-09-20T16:47:36.849Z,96578.81
2022-09-20T16:50:04.606Z,96585.41
2022-09-20T16:52:32.003Z,96576.44
2022-09-20T16:55:03.203Z,96572.88
2022-09-20T16:57:31.903Z,96588.31
2022-09-20T16:59:59.543Z,96598.13
2022-09-20T17:02:26.933Z,96592.41
2022-09-20T17:04:54.607Z,96589.22
2022-09-20T17:07:24.187Z,96597.31
2022-09-20T17:09:51.918Z,96603.19
2022-09-20T17:12:23.252Z,96610.34
2022-09-20T17:14:50.688Z,96610.31
2022-09-20T17:17:21.864Z,96616.59
2022-09-20T17:19:49.261Z,96609.69
2022-09-20T17:22:16.956Z,96610.06
2022-09-20T17:24:44.348Z,96609.97
2022-09-20T17:27:12.705Z,96608.75
2022-09-20T17:29:41.546Z,96614.00
2022-09-20T17:32:08.994Z,96618.44
2022-09-20T17:34:36.595Z,96615.28
2022-09-20T17:37:04.630Z,96620.47
2022-09-20T17:39:32.118Z,96628.19
2022-09-20T17:41:59.542Z,96632.38
2022-09-20T17:44:28.307Z,96627.72
2022-09-20T17:46:57.161Z,96639.28
2022-09-20T17:49:26.637Z,96630.34
2022-09-20T17:51:55.729Z,96633.88
2022-09-20T17:54:24.571Z,96647.56
2022-09-20T17:56:55.506Z,96638.03
2022-09-20T17:59:22.998Z,96630.78
2022-09-20T18:01:52.213Z,96649.59
2022-09-20T18:04:24.075Z,96652.44
2022-09-20T18:06:52.992Z,96650.16
2022-09-20T18:09:22.857Z,96652.41
2022-09-20T18:11:52.608Z,96652.59
2022-09-20T18:14:23.016Z,96653.63
2022-09-20T18:16:52.692Z,96664.91
2022-09-20T18:19:22.594Z,96659.22
2022-09-20T18:21:50.528Z,96661.47
2022-09-20T18:24:17.932Z,96664.81
2022-09-20T18:26:45.379Z,96662.47
2022-09-20T18:29:16.404Z,96664.13
2022-09-20T18:31:47.281Z,96662.91
2022-09-20T18:34:17.681Z,96656.19
2022-09-20T18:36:51.442Z,96657.88
2022-09-20T18:39:20.631Z,96666.06
2022-09-20T18:41:50.387Z,96671.34
2022-09-20T18:44:18.961Z,96662.75
2022-09-20T18:46:47.015Z,96670.34
2022-09-20T18:49:16.704Z,96664.72
2022-09-20T18:51:47.292Z,96680.41
2022-09-20T18:54:15.936Z,96685.44
2022-09-20T18:56:44.838Z,96685.88
2022-09-20T18:59:16.215Z,96682.97
2022-09-20T19:01:59.381Z,96680.44
2022-09-20T19:04:41.774Z,96682.88
2022-09-20T19:07:17.179Z,96691.69
2022-09-20T19:09:49.386Z,96688.31
2022-09-20T19:12:23.954Z,96694.16
2022-09-20T19:15:04.556Z,96696.44
2022-09-20T19:18:05.018Z,96696.72
2022-09-20T19:20:38.215Z,96700.94
2022-09-20T19:23:28.222Z,96709.22
2022-09-20T19:26:04.502Z,96701.75
2022-09-20T19:28:32.648Z,96699.44
2022-09-20T19:31:00.797Z,96714.16
2022-09-20T19:33:29.533Z,96707.06
2022-09-20T19:35:59.033Z,96703.69
2022-09-20T19:38:36.803Z,96721.63
2022-09-20T19:41:20.326Z,96714.31
2022-09-20T19:44:05.243Z,96726.75
2022-09-20T19:46:46.283Z,96729.16
2022-09-20T19:49:16.165Z,96712.81
2022-09-20T19:51:45.379Z,96726.00
2022-09-20T19:54:15.943Z,96730.19
2022-09-20T19:56:52.749Z,96726.97
2022-09-20T19:59:21.349Z,96722.00
2022-09-20T20:01:49.611Z,96727.59
2022-09-20T20:04:17.529Z,96735.78
2022-09-20T20:06:53.387Z,96733.59
2022-09-20T20:09:32.984Z,96739.75
2022-09-20T20:12:07.464Z,96735.97
2022-09-20T20:14:41.206Z,96745.38
2022-09-20T20:17:24.675Z,96749.97
2022-09-20T20:20:05.355Z,96740.25
2022-09-20T20:22:47.878Z,96749.25
2022-09-20T20:25:26.188Z,96749.28
2022-09-20T20:27:53.707Z,96757.22
2022-09-20T20:30:21.325Z,96744.88
2022-09-20T20:32:48.759Z,96749.69
2022-09-20T20:35:17.163Z,96751.09
2022-09-20T20:37:47.282Z,96754.25
2022-09-20T20:40:15.243Z,96758.06
2022-09-20T20:42:44.129Z,96749.91
2022-09-20T20:45:12.149Z,96761.47
2022-09-20T20:47:39.876Z,96736.41
2022-09-20T20:50:07.975Z,96754.91
2022-09-20T20:52:35.374Z,96743.97
2022-09-20T20:55:02.810Z,96760.47
2022-09-20T20:57:31.245Z,96761.47
2022-09-20T21:00:00.533Z,96764.06
2022-09-20T21:02:28.006Z,96761.28
2022-09-20T21:04:55.525Z,96758.09
2022-09-20T21:07:22.948Z,96763.69
2022-09-20T21:09:50.384Z,96750.16
2022-09-20T21:12:18.340Z,96769.84
2022-09-20T21:14:45.765Z,96764.28
2022-09-20T21:17:14.723Z,96770.44
2022-09-20T21:19:42.178Z,96763.06
2022-09-20T21:22:09.598Z,96775.63
2022-09-20T21:24:38.405Z,96764.28
2022-09-20T21:27:05.924Z,96769.84
2022-09-20T21:29:33.361Z,96769.44
2022-09-20T21:32:00.807Z,96770.22
2022-09-20T21:34:29.594Z,96775.81
2022-09-20T21:36:57.064Z,96754.09
2022-09-20T21:39:24.754Z,96769.63
2022-09-20T21:41:52.310Z,96777.56
2022-09-20T21:44:20.456Z,96784.53
2022-09-20T21:46:48.311Z,96782.47
2022-09-20T21:49:15.757Z,96785.63
2022-09-20T21:51:45.107Z,96789.97
2022-09-20T21:54:12.687Z,96780.78
2022-09-20T21:56:41.289Z,96788.34
2022-09-20T21:59:09.376Z,96785.41
2022-09-20T22:01:40.076Z,96783.56
2022-09-20T22:04:09.867Z,96783.59
2022-09-20T22:06:38.820Z,96783.56
2022-09-20T22:09:09.423Z,96791.09
2022-09-20T22:11:39.037Z,96782.34
2022-09-20T22:14:07.542Z,96791.22
2022-09-20T22:16:36.716Z,96784.09
2022-09-20T22:19:04.756Z,96780.97
2022-09-20T22:21:34.076Z,96786.34
2022-09-20T22:24:03.155Z,96789.94
2022-09-20T22:26:34.053Z,96803.19
2022-09-20T22:29:01.569Z,96794.00
2022-09-20T22:31:30.772Z,96793.44
2022-09-20T22:33:59.843Z,96781.69
2022-09-20T22:36:30.151Z,96793.59
2022-09-20T22:38:57.764Z,96798.31
2022-09-20T22:41:25.563Z,96803.00
2022-09-20T22:43:54.698Z,96801.38
2022-09-20T22:46:23.868Z,96800.41
2022-09-20T22:48:51.624Z,96799.34
2022-09-20T22:51:20.519Z,96793.44
2022-09-20T22:53:48.886Z,96792.66
2022-09-20T22:56:19.167Z,96792.13
2022-09-20T22:58:48.524Z,96804.19
2022-09-20T23:01:20.312Z,96786.50
2022-09-20T23:03:49.641Z,96775.50
2022-09-20T23:06:20.849Z,96782.09
2022-09-20T23:08:49.038Z,96788.94
2022-09-20T23:11:17.267Z,96765.84
2022-09-20T23:13:45.645Z,96802.63
2022-09-20T23:16:14.929Z,96796.06
2022-09-20T23:18:43.772Z,96801.38
2022-09-20T23:21:11.180Z,96802.34
2022-09-20T23:23:39.760Z,96806.03
2022-09-20T23:26:08.825Z,96800.63
2022-09-20T23:28:36.832Z,96799.00
2022-09-20T23:31:06.208Z,96789.44
2022-09-20T23:33:34.052Z,96783.78
2022-09-20T23:36:07.590Z,96791.97
2022-09-20T23:38:35.261Z,96790.44
2022-09-20T23:41:03.846Z,96793.34
2022-09-20T23:43:31.396Z,96783.75
2022-09-20T23:45:59.069Z,96795.81
2022-09-20T23:48:26.555Z,96800.16
2022-09-20T23:50:54.139Z,96776.69
2022-09-20T23:53:23.003Z,96796.97
2022-09-20T23:55:50.824Z,96790.03
2022-09-20T23:58:18.354Z,96788.00
